createdAt,value
2018-10-18T00:01:47.569Z,63.37
2018-10-18T00:04:15.835Z,64.20
2018-10-18T00:06:44.065Z,62.03
2018-10-18T00:09:12.746Z,60.43
2018-10-18T00:11:41.053Z,60.53
2018-10-18T00:14:09.326Z,59.20
2018-10-18T00:16:37.699Z,61.57
2018-10-18T00:19:05.915Z,65.67
2018-10-18T00:21:34.157Z,61.53
2018-10-18T00:24:02.347Z,64.40
2018-10-18T00:26:30.537Z,62.63
2018-10-18T00:28:58.777Z,66.37
2018-10-18T00:31:26.959Z,54.23
2018-10-18T00:33:55.142Z,66.07
2018-10-18T00:36:23.388Z,62.00
2018-10-18T00:38:51.642Z,64.03
2018-10-18T00:41:19.896Z,61.90
2018-10-18T00:43:48.167Z,58.70
2018-10-18T00:46:16.406Z,56.87
2018-10-18T00:48:44.649Z,58.73
2018-10-18T00:51:12.924Z,57.60
2018-10-18T00:53:41.147Z,62.83
2018-10-18T00:56:16.117Z,57.03
2018-10-18T00:58:44.233Z,58.20
2018-10-18T01:01:12.543Z,57.07
2018-10-18T01:03:40.779Z,51.47
2018-10-18T01:06:09.047Z,53.40
2018-10-18T01:08:37.241Z,53.93
2018-10-18T01:11:05.438Z,58.27
2018-10-18T01:13:33.631Z,64.73
2018-10-18T01:16:01.887Z,53.93
2018-10-18T01:18:30.142Z,54.37
2018-10-18T01:20:58.339Z,55.57
2018-10-18T01:23:26.712Z,55.07
2018-10-18T01:25:54.985Z,57.10
2018-10-18T01:28:23.190Z,52.33
2018-10-18T01:30:51.353Z,50.77
2018-10-18T01:33:19.598Z,55.10
2018-10-18T01:35:47.756Z,52.73
2018-10-18T01:38:16.053Z,55.70
2018-10-18T01:40:44.142Z,52.17
2018-10-18T01:43:12.316Z,49.53
2018-10-18T01:45:40.645Z,57.97
2018-10-18T01:48:09.377Z,52.73
2018-10-18T01:50:37.712Z,54.87
2018-10-18T01:53:06.636Z,55.00
2018-10-18T01:55:34.902Z,49.47
2018-10-18T01:58:03.180Z,54.17
2018-10-18T02:00:31.463Z,60.50
2018-10-18T02:02:59.754Z,53.90
2018-10-18T02:05:28.046Z,56.53
2018-10-18T02:07:56.300Z,57.53
2018-10-18T02:10:24.434Z,64.20
2018-10-18T02:12:52.658Z,56.20
2018-10-18T02:15:20.852Z,65.90
2018-10-18T02:17:49.057Z,61.53
2018-10-18T02:20:17.288Z,67.10
2018-10-18T02:22:45.532Z,68.33
2018-10-18T02:25:13.774Z,68.10
2018-10-18T02:27:42.012Z,69.50
2018-10-18T02:30:10.286Z,65.30
2018-10-18T02:32:38.466Z,60.90
2018-10-18T02:35:07.090Z,62.07
2018-10-18T02:37:35.318Z,57.33
2018-10-18T02:40:03.602Z,58.90
2018-10-18T02:42:38.585Z,55.87
2018-10-18T02:45:06.820Z,55.27
2018-10-18T02:47:35.226Z,55.93
2018-10-18T02:50:03.484Z,70.93
2018-10-18T02:52:31.760Z,55.47
2018-10-18T02:55:00.010Z,56.43
2018-10-18T02:57:28.384Z,55.77
2018-10-18T02:59:56.752Z,58.13
2018-10-18T03:02:25.078Z,59.30
2018-10-18T03:04:53.311Z,55.00
2018-10-18T03:07:21.499Z,58.27
2018-10-18T03:09:49.784Z,55.43
2018-10-18T03:12:18.057Z,56.10
2018-10-18T03:14:46.260Z,62.43
2018-10-18T03:17:14.536Z,59.43
2018-10-18T03:19:42.727Z,56.07
2018-10-18T03:22:10.956Z,56.50
2018-10-18T03:24:39.822Z,53.83
2018-10-18T03:27:07.987Z,54.83
2018-10-18T03:29:36.286Z,52.57
2018-10-18T03:32:07.946Z,51.53
2018-10-18T03:34:36.230Z,61.67
2018-10-18T03:37:04.925Z,61.27
2018-10-18T03:39:33.162Z,62.07
2018-10-18T03:42:01.490Z,60.23
2018-10-18T03:44:29.669Z,56.43
2018-10-18T03:46:57.885Z,59.00
2018-10-18T03:49:26.116Z,57.77
2018-10-18T03:51:54.318Z,61.97
2018-10-18T03:54:22.509Z,60.77
2018-10-18T03:56:50.785Z,55.23
2018-10-18T03:59:19.005Z,56.00
2018-10-18T04:01:47.259Z,58.60
2018-10-18T04:04:15.460Z,61.40
2018-10-18T04:06:43.725Z,67.97
2018-10-18T04:09:18.550Z,61.07
2018-10-18T04:11:46.746Z,57.43
2018-10-18T04:14:14.964Z,66.07
2018-10-18T04:16:43.154Z,65.33
2018-10-18T04:19:11.518Z,57.63
2018-10-18T04:21:39.689Z,59.63
2018-10-18T04:24:07.993Z,59.77
2018-10-18T04:26:36.338Z,58.80
2018-10-18T04:29:04.743Z,61.40
2018-10-18T04:31:32.977Z,70.20
2018-10-18T04:34:01.273Z,66.90
2018-10-18T04:36:29.554Z,64.80
2018-10-18T04:38:57.822Z,67.43
2018-10-18T04:41:26.014Z,75.30
2018-10-18T04:43:54.461Z,74.53
2018-10-18T04:46:22.721Z,72.63
2018-10-18T04:48:50.997Z,75.13
2018-10-18T04:51:19.276Z,67.07
2018-10-18T04:53:47.574Z,72.40
2018-10-18T04:56:16.017Z,71.90
2018-10-18T04:58:44.288Z,71.70
2018-10-18T05:01:15.684Z,70.03
2018-10-18T05:03:44.447Z,82.87
2018-10-18T05:06:19.050Z,82.73
2018-10-18T05:08:47.329Z,68.60
2018-10-18T05:11:15.706Z,73.13
2018-10-18T05:13:44.021Z,76.93
2018-10-18T05:16:12.323Z,72.53
2018-10-18T05:18:41.533Z,74.83
2018-10-18T05:21:09.801Z,73.17
2018-10-18T05:23:38.066Z,71.17
2018-10-18T05:26:08.020Z,79.03
2018-10-18T05:28:36.409Z,74.20
2018-10-18T05:31:08.536Z,78.53
2018-10-18T05:33:36.750Z,81.37
2018-10-18T05:36:05.109Z,77.87
2018-10-18T05:38:33.371Z,86.40
2018-10-18T05:41:01.689Z,73.67
2018-10-18T05:43:29.910Z,85.13
2018-10-18T05:45:58.167Z,78.20
2018-10-18T05:48:26.460Z,72.10
2018-10-18T05:50:54.711Z,76.83
2018-10-18T05:53:23.002Z,67.70
2018-10-18T05:55:53.307Z,70.63
2018-10-18T05:58:21.617Z,94.10
2018-10-18T06:00:49.819Z,78.33
2018-10-18T06:03:18.033Z,88.60
2018-10-18T06:05:47.757Z,92.23
2018-10-18T06:08:16.033Z,95.17
2018-10-18T06:10:55.486Z,99.23
2018-10-18T06:13:23.779Z,89.60
2018-10-18T06:15:52.013Z,109.53
2018-10-18T06:18:20.253Z,90.43
2018-10-18T06:20:48.513Z,96.33
2018-10-18T06:23:17.074Z,92.10
2018-10-18T06:25:45.191Z,92.50
2018-10-18T06:28:13.405Z,104.97
2018-10-18T06:30:41.639Z,100.27
2018-10-18T06:33:09.973Z,105.80
2018-10-18T06:35:38.225Z,102.07
2018-10-18T06:38:06.478Z,93.53
2018-10-18T06:40:34.911Z,99.10
2018-10-18T06:43:03.251Z,88.17
2018-10-18T06:45:31.465Z,97.37
2018-10-18T06:47:59.771Z,97.70
2018-10-18T06:50:28.057Z,109.70
2018-10-18T06:52:56.269Z,98.00
2018-10-18T06:55:24.569Z,93.10
2018-10-18T06:57:52.937Z,89.93
2018-10-18T07:00:23.265Z,84.60
2018-10-18T07:02:52.033Z,90.97
2018-10-18T07:05:20.246Z,81.20
2018-10-18T07:07:48.483Z,93.63
2018-10-18T07:10:16.794Z,98.40
2018-10-18T07:12:45.018Z,88.53
2018-10-18T07:15:14.504Z,95.70
2018-10-18T07:17:43.475Z,107.70
2018-10-18T07:20:12.492Z,97.27
2018-10-18T07:22:41.233Z,88.83
2018-10-18T07:25:13.750Z,103.77
2018-10-18T07:27:42.328Z,99.00
2018-10-18T07:30:12.009Z,108.90
2018-10-18T07:32:40.481Z,102.40
2018-10-18T07:35:09.794Z,109.13
2018-10-18T07:37:38.260Z,122.20
2018-10-18T07:40:08.646Z,114.37
2018-10-18T07:42:37.051Z,124.20
2018-10-18T07:45:05.698Z,132.57
2018-10-18T07:47:33.916Z,124.83
2018-10-18T07:50:02.264Z,139.70
2018-10-18T07:52:30.538Z,133.00
2018-10-18T07:54:58.912Z,141.37
2018-10-18T07:57:27.132Z,139.03
2018-10-18T07:59:55.489Z,134.73
2018-10-18T08:02:23.767Z,139.73
2018-10-18T08:04:52.023Z,136.90
2018-10-18T08:07:20.237Z,130.60
2018-10-18T08:09:48.569Z,126.57
2018-10-18T08:12:16.887Z,126.97
2018-10-18T08:14:45.150Z,122.47
2018-10-18T08:17:13.593Z,136.53
2018-10-18T08:19:41.825Z,124.13
2018-10-18T08:22:10.103Z,127.00
2018-10-18T08:24:38.440Z,115.90
2018-10-18T08:27:06.726Z,112.17
2018-10-18T08:29:35.006Z,111.37
2018-10-18T08:32:03.276Z,121.63
2018-10-18T08:34:31.563Z,114.00
2018-10-18T08:36:59.862Z,105.03
2018-10-18T08:39:28.106Z,111.77
2018-10-18T08:41:57.496Z,106.70
2018-10-18T08:44:25.906Z,116.37
2018-10-18T08:46:54.157Z,100.87
2018-10-18T08:49:22.455Z,92.27
2018-10-18T08:51:50.773Z,102.63
2018-10-18T08:54:19.026Z,95.30
2018-10-18T08:56:47.254Z,95.23
2018-10-18T08:59:15.697Z,98.30
2018-10-18T09:01:44.003Z,88.67
2018-10-18T09:04:12.260Z,92.97
2018-10-18T09:06:40.513Z,89.40
2018-10-18T09:09:09.502Z,82.00
2018-10-18T09:11:37.964Z,82.17
2018-10-18T09:14:13.258Z,91.83
2018-10-18T09:16:41.557Z,82.40
2018-10-18T09:19:09.886Z,81.80
2018-10-18T09:21:38.103Z,77.37
2018-10-18T09:24:06.409Z,80.00
2018-10-18T09:26:34.673Z,80.57
2018-10-18T09:29:02.933Z,76.43
2018-10-18T09:31:31.151Z,71.10
2018-10-18T09:33:59.485Z,83.30
2018-10-18T09:36:27.751Z,77.13
2018-10-18T09:38:55.988Z,65.27
2018-10-18T09:41:24.281Z,72.87
2018-10-18T09:44:02.188Z,72.67
2018-10-18T09:46:31.072Z,72.27
2018-10-18T09:48:59.567Z,77.27
2018-10-18T09:51:27.798Z,72.80
2018-10-18T09:53:56.063Z,69.00
2018-10-18T09:56:24.348Z,69.37
2018-10-18T09:58:52.801Z,66.80
2018-10-18T10:01:26.416Z,63.67
2018-10-18T10:03:54.664Z,67.83
2018-10-18T10:06:22.992Z,61.30
2018-10-18T10:08:51.225Z,68.80
2018-10-18T10:11:19.734Z,62.30
2018-10-18T10:13:48.071Z,69.63
2018-10-18T10:16:17.006Z,67.17
2018-10-18T10:18:45.234Z,64.37
2018-10-18T10:21:13.584Z,64.90
2018-10-18T10:23:41.796Z,76.90
2018-10-18T10:26:10.051Z,68.47
2018-10-18T10:28:38.323Z,70.43
2018-10-18T10:31:07.768Z,69.90
2018-10-18T10:33:35.931Z,70.77
2018-10-18T10:36:04.417Z,72.80
2018-10-18T10:38:32.753Z,72.33
2018-10-18T10:41:01.012Z,68.60
2018-10-18T10:43:29.245Z,59.80
2018-10-18T10:45:57.443Z,67.47
2018-10-18T10:48:25.651Z,62.37
2018-10-18T10:50:53.905Z,62.80
2018-10-18T10:53:22.402Z,63.43
2018-10-18T10:55:51.169Z,58.10
2018-10-18T10:58:19.500Z,62.67
2018-10-18T11:01:08.426Z,57.60
2018-10-18T11:03:37.173Z,67.43
2018-10-18T11:06:05.495Z,61.83
2018-10-18T11:08:34.232Z,58.80
2018-10-18T11:11:02.526Z,61.60
2018-10-18T11:13:30.974Z,60.53
2018-10-18T11:16:00.793Z,59.93
2018-10-18T11:18:29.095Z,65.83
2018-10-18T11:20:57.425Z,60.53
2018-10-18T11:23:25.836Z,60.13
2018-10-18T11:25:54.099Z,65.70
2018-10-18T11:28:22.307Z,60.93
2018-10-18T11:30:50.572Z,62.13
2018-10-18T11:33:18.903Z,61.80
2018-10-18T11:35:47.104Z,64.57
2018-10-18T11:38:15.683Z,67.40
2018-10-18T11:40:44.001Z,71.27
2018-10-18T11:43:12.684Z,75.07
2018-10-18T11:45:41.243Z,59.80
2018-10-18T11:48:11.149Z,70.83
2018-10-18T11:50:39.738Z,64.40
2018-10-18T11:53:07.972Z,65.77
2018-10-18T11:55:36.543Z,66.73
2018-10-18T11:58:05.282Z,62.53
2018-10-18T12:00:33.502Z,59.27
2018-10-18T12:03:01.880Z,57.87
2018-10-18T12:05:30.201Z,60.70
2018-10-18T12:07:58.666Z,62.53
2018-10-18T12:10:26.878Z,67.40
2018-10-18T12:12:55.200Z,65.63
2018-10-18T12:15:23.401Z,57.80
2018-10-18T12:17:51.659Z,56.87
2018-10-18T12:20:19.940Z,65.67
2018-10-18T12:22:48.193Z,63.90
2018-10-18T12:25:16.407Z,72.87
2018-10-18T12:27:45.017Z,71.07
2018-10-18T12:30:13.810Z,74.70
2018-10-18T12:32:42.045Z,68.67
2018-10-18T12:35:10.348Z,77.60
2018-10-18T12:37:38.570Z,73.33
2018-10-18T12:40:08.094Z,85.73
2018-10-18T12:42:37.760Z,81.63
2018-10-18T12:45:07.968Z,81.17
2018-10-18T12:47:36.273Z,88.33
2018-10-18T12:50:05.043Z,83.77
2018-10-18T12:52:33.201Z,91.30
2018-10-18T12:55:01.765Z,87.67
2018-10-18T12:57:30.065Z,87.30
2018-10-18T12:59:58.417Z,86.17
2018-10-18T13:02:27.003Z,100.50
2018-10-18T13:04:55.329Z,94.03
2018-10-18T13:07:23.668Z,112.70
2018-10-18T13:09:51.997Z,102.07
2018-10-18T13:12:20.384Z,96.37
2018-10-18T13:14:48.537Z,101.80
2018-10-18T13:17:16.864Z,88.27
2018-10-18T13:19:45.197Z,109.50
2018-10-18T13:22:13.520Z,100.87
2018-10-18T13:24:41.802Z,93.90
2018-10-18T13:27:10.147Z,94.47
2018-10-18T13:29:38.473Z,114.23
2018-10-18T13:32:06.773Z,100.70
2018-10-18T13:34:35.109Z,101.87
2018-10-18T13:37:03.477Z,105.20
2018-10-18T13:39:31.708Z,96.67
2018-10-18T13:42:00.047Z,109.03
2018-10-18T13:44:28.319Z,113.60
2018-10-18T13:46:56.740Z,102.40
2018-10-18T13:49:25.017Z,117.57
2018-10-18T13:51:53.232Z,108.20
2018-10-18T13:54:21.534Z,98.07
2018-10-18T13:56:49.837Z,111.87
2018-10-18T13:59:29.661Z,101.87
2018-10-18T14:01:58.062Z,103.40
2018-10-18T14:04:26.286Z,106.77
2018-10-18T14:06:54.538Z,103.33
2018-10-18T14:09:22.849Z,104.00
2018-10-18T14:11:51.117Z,97.30
2018-10-18T14:14:19.364Z,93.30
2018-10-18T14:16:47.616Z,102.83
2018-10-18T14:19:15.813Z,93.37
2018-10-18T14:21:44.007Z,96.63
2018-10-18T14:24:12.241Z,91.57
2018-10-18T14:26:40.518Z,98.30
2018-10-18T14:29:08.806Z,90.60
2018-10-18T14:31:37.003Z,91.40
2018-10-18T14:34:06.100Z,97.93
2018-10-18T14:36:34.359Z,94.90
2018-10-18T14:39:03.038Z,98.43
2018-10-18T14:41:31.467Z,94.73
2018-10-18T14:44:06.374Z,92.90
2018-10-18T14:46:34.693Z,99.90
2018-10-18T14:49:03.016Z,97.97
2018-10-18T14:51:31.301Z,93.30
2018-10-18T14:53:59.620Z,96.90
2018-10-18T14:56:27.898Z,100.43
2018-10-18T14:58:56.311Z,85.37
2018-10-18T15:01:24.574Z,92.83
2018-10-18T15:03:59.376Z,99.67
2018-10-18T15:06:27.866Z,102.97
2018-10-18T15:08:56.164Z,92.93
2018-10-18T15:11:24.460Z,90.27
2018-10-18T15:13:53.205Z,99.17
2018-10-18T15:16:21.814Z,94.20
2018-10-18T15:18:50.208Z,90.50
2018-10-18T15:21:18.508Z,85.37
2018-10-18T15:23:47.182Z,89.73
2018-10-18T15:26:15.776Z,87.70
2018-10-18T15:28:44.323Z,95.37
2018-10-18T15:31:12.993Z,94.37
2018-10-18T15:33:41.245Z,80.43
2018-10-18T15:36:10.541Z,80.47
2018-10-18T15:38:39.562Z,81.77
2018-10-18T15:41:07.901Z,77.70
2018-10-18T15:43:36.640Z,82.20
2018-10-18T15:46:05.551Z,82.50
2018-10-18T15:48:41.806Z,78.37
2018-10-18T15:51:10.739Z,85.23
2018-10-18T15:53:39.006Z,89.00
2018-10-18T15:56:07.342Z,79.63
2018-10-18T15:58:35.855Z,80.00
2018-10-18T16:01:04.312Z,68.23
2018-10-18T16:03:33.119Z,82.20
2018-10-18T16:06:01.375Z,81.47
2018-10-18T16:08:29.675Z,77.33
2018-10-18T16:10:58.114Z,76.90
2018-10-18T16:13:26.467Z,77.20
2018-10-18T16:15:54.654Z,94.43
2018-10-18T16:18:22.963Z,84.73
2018-10-18T16:20:51.291Z,97.87
2018-10-18T16:23:19.867Z,97.93
2018-10-18T16:25:48.229Z,80.10
2018-10-18T16:28:16.492Z,85.23
2018-10-18T16:30:44.736Z,72.53
2018-10-18T16:33:12.962Z,88.03
2018-10-18T16:35:47.762Z,85.20
2018-10-18T16:38:16.203Z,72.47
2018-10-18T16:40:44.661Z,98.33
2018-10-18T16:43:13.570Z,87.37
2018-10-18T16:45:41.890Z,84.43
2018-10-18T16:48:10.746Z,94.53
2018-10-18T16:50:39.239Z,88.00
2018-10-18T16:53:07.949Z,93.57
2018-10-18T16:55:36.190Z,103.40
2018-10-18T16:58:04.648Z,107.47
2018-10-18T17:00:33.091Z,107.87
2018-10-18T17:03:01.417Z,115.13
2018-10-18T17:05:29.984Z,108.20
2018-10-18T17:07:58.402Z,107.37
2018-10-18T17:10:26.941Z,110.20
2018-10-18T17:12:55.315Z,111.13
2018-10-18T17:15:23.577Z,115.33
2018-10-18T17:17:51.940Z,108.40
2018-10-18T17:20:20.249Z,82.50
2018-10-18T17:22:48.473Z,80.13
2018-10-18T17:25:16.763Z,77.93
2018-10-18T17:27:45.149Z,66.33
2018-10-18T17:30:13.388Z,63.43
2018-10-18T17:32:41.639Z,57.33
2018-10-18T17:35:09.939Z,46.80
2018-10-18T17:37:38.360Z,57.90
2018-10-18T17:40:07.274Z,48.70
2018-10-18T17:42:35.733Z,52.40
2018-10-18T17:45:04.029Z,53.83
2018-10-18T17:47:32.389Z,53.57
2018-10-18T17:50:00.710Z,59.63
2018-10-18T17:52:28.982Z,62.47
2018-10-18T17:54:57.223Z,60.97
2018-10-18T17:57:25.483Z,62.50
2018-10-18T17:59:53.843Z,78.97
2018-10-18T18:02:22.353Z,75.77
2018-10-18T18:04:50.782Z,77.20
2018-10-18T18:07:19.402Z,71.13
2018-10-18T18:09:47.706Z,80.77
2018-10-18T18:12:16.120Z,75.17
2018-10-18T18:14:44.456Z,77.40
2018-10-18T18:17:12.697Z,76.70
2018-10-18T18:19:41.104Z,71.17
2018-10-18T18:22:09.655Z,61.93
2018-10-18T18:24:38.026Z,54.57
2018-10-18T18:27:06.403Z,60.10
2018-10-18T18:29:34.715Z,63.03
2018-10-18T18:32:03.064Z,54.43
2018-10-18T18:34:31.319Z,54.60
2018-10-18T18:36:59.693Z,52.00
2018-10-18T18:39:28.199Z,48.00
2018-10-18T18:41:56.521Z,63.80
2018-10-18T18:44:24.869Z,57.83
2018-10-18T18:46:53.234Z,57.53
2018-10-18T18:49:21.644Z,51.63
2018-10-18T18:51:49.933Z,49.27
2018-10-18T18:54:18.359Z,52.13
2018-10-18T18:56:46.742Z,45.43
2018-10-18T18:59:15.111Z,58.33
2018-10-18T19:01:43.579Z,46.60
2018-10-18T19:04:11.914Z,48.97
2018-10-18T19:06:41.160Z,44.30
2018-10-18T19:09:10.095Z,46.13
2018-10-18T19:11:38.752Z,44.73
2018-10-18T19:14:07.763Z,36.17
2018-10-18T19:16:36.143Z,33.50
2018-10-18T19:19:04.700Z,36.80
2018-10-18T19:21:33.066Z,35.90
2018-10-18T19:24:01.396Z,37.20
2018-10-18T19:26:29.680Z,31.17
2018-10-18T19:28:57.960Z,29.63
2018-10-18T19:31:26.390Z,34.33
2018-10-18T19:33:54.936Z,26.23
2018-10-18T19:36:23.230Z,32.20
2018-10-18T19:38:51.524Z,23.67
2018-10-18T19:41:19.972Z,23.97
2018-10-18T19:43:48.327Z,33.60
2018-10-18T19:46:16.884Z,29.17
2018-10-18T19:48:45.098Z,27.00
2018-10-18T19:51:13.640Z,28.80
2018-10-18T19:53:41.962Z,18.70
2018-10-18T19:56:10.422Z,24.97
2018-10-18T19:58:38.744Z,22.60
2018-10-18T20:01:07.176Z,20.03
2018-10-18T20:03:35.490Z,21.90
2018-10-18T20:06:03.803Z,25.53
2018-10-18T20:08:32.166Z,15.63
2018-10-18T20:11:00.552Z,12.83
2018-10-18T20:13:28.880Z,22.87
2018-10-18T20:15:57.173Z,24.93
2018-10-18T20:18:25.532Z,19.23
2018-10-18T20:20:53.817Z,21.27
2018-10-18T20:23:22.221Z,21.10
2018-10-18T20:25:50.815Z,18.07
2018-10-18T20:28:18.944Z,20.10
2018-10-18T20:30:47.294Z,21.20
2018-10-18T20:33:15.621Z,19.33
2018-10-18T20:35:43.963Z,21.47
2018-10-18T20:38:12.148Z,17.13
2018-10-18T20:40:40.370Z,15.30
2018-10-18T20:43:08.649Z,17.63
2018-10-18T20:45:37.388Z,15.37
2018-10-18T20:48:05.963Z,22.57
2018-10-18T20:50:34.042Z,20.50
2018-10-18T20:53:02.493Z,20.73
2018-10-18T20:55:30.721Z,17.10
2018-10-18T20:57:59.059Z,16.27
2018-10-18T21:00:27.298Z,20.67
2018-10-18T21:02:55.905Z,12.53
2018-10-18T21:05:24.061Z,16.00
2018-10-18T21:07:52.328Z,23.70
2018-10-18T21:10:20.631Z,13.30
2018-10-18T21:12:48.890Z,17.07
2018-10-18T21:15:17.268Z,21.13
2018-10-18T21:17:45.721Z,15.23
2018-10-18T21:20:13.935Z,15.87
2018-10-18T21:22:42.139Z,11.37
2018-10-18T21:25:10.409Z,16.03
2018-10-18T21:27:38.680Z,11.93
2018-10-18T21:30:07.341Z,11.70
2018-10-18T21:32:35.571Z,17.67
2018-10-18T21:35:03.940Z,12.73
2018-10-18T21:37:32.681Z,15.50
2018-10-18T21:40:00.990Z,15.00
2018-10-18T21:42:29.241Z,12.87
2018-10-18T21:44:57.494Z,7.33
2018-10-18T21:47:26.018Z,23.63
2018-10-18T21:49:54.237Z,6.60
2018-10-18T21:52:22.556Z,6.30
2018-10-18T21:54:50.800Z,8.23
2018-10-18T21:57:19.028Z,9.67
2018-10-18T21:59:47.299Z,9.13
2018-10-18T22:02:15.615Z,7.47
2018-10-18T22:04:43.891Z,8.90
2018-10-18T22:07:12.109Z,7.10
2018-10-18T22:09:40.416Z,10.47
2018-10-18T22:12:08.622Z,12.33
2018-10-18T22:14:36.885Z,6.53
2018-10-18T22:17:05.934Z,9.93
2018-10-18T22:19:34.231Z,4.17
2018-10-18T22:22:02.609Z,8.60
2018-10-18T22:24:30.818Z,9.50
2018-10-18T22:26:59.188Z,10.43
2018-10-18T22:29:27.390Z,15.30
2018-10-18T22:31:55.575Z,11.57
2018-10-18T22:34:23.747Z,6.20
2018-10-18T22:36:51.951Z,3.47
2018-10-18T22:39:20.212Z,8.00
2018-10-18T22:41:48.432Z,3.60
2018-10-18T22:44:16.644Z,8.83
2018-10-18T22:46:44.920Z,8.77
2018-10-18T22:49:13.119Z,7.57
2018-10-18T22:51:41.402Z,6.73
2018-10-18T22:54:09.608Z,10.47
2018-10-18T22:56:37.921Z,14.77
2018-10-18T22:59:06.218Z,10.37
2018-10-18T23:01:34.562Z,6.83
2018-10-18T23:04:02.733Z,5.23
2018-10-18T23:06:37.660Z,20.63
2018-10-18T23:09:08.439Z,7.63
2018-10-18T23:11:36.675Z,7.67
2018-10-18T23:14:05.432Z,9.47
2018-10-18T23:16:40.388Z,11.53
2018-10-18T23:19:09.621Z,9.70
2018-10-18T23:21:37.906Z,9.60
2018-10-18T23:24:06.529Z,13.60
2018-10-18T23:26:34.764Z,5.63
2018-10-18T23:29:03.086Z,7.23
2018-10-18T23:31:31.270Z,12.03
2018-10-18T23:33:59.566Z,8.33
2018-10-18T23:36:27.812Z,8.43
2018-10-18T23:38:56.115Z,7.47
2018-10-18T23:41:24.275Z,12.57
2018-10-18T23:43:52.549Z,10.70
2018-10-18T23:46:20.915Z,12.43
2018-10-18T23:48:49.248Z,10.60
2018-10-18T23:51:17.514Z,5.27
2018-10-18T23:53:45.730Z,11.53
2018-10-18T23:56:13.961Z,11.80
2018-10-18T23:58:42.534Z,8.13
